sensor_id;sensor_type;location;lat;lon;timestamp;P1;durP1;ratioP1;P2;durP2;ratioP2
73266;SDS011;61495;53.400;7.608;2023-02-13T00:00:18;12.82;;;6.13;;
73266;SDS011;61495;53.400;7.608;2023-02-13T00:02:45;10.82;;;5.93;;
73266;SDS011;61495;53.400;7.608;2023-02-13T00:05:11;14.93;;;6.70;;
73266;SDS011;61495;53.400;7.608;2023-02-13T00:07:36;14.38;;;6.50;;
73266;SDS011;61495;53.400;7.608;2023-02-13T00:10:03;13.07;;;6.00;;
73266;SDS011;61495;53.400;7.608;2023-02-13T00:12:29;15.20;;;7.20;;
73266;SDS011;61495;53.400;7.608;2023-02-13T00:14:54;13.57;;;5.93;;
73266;SDS011;61495;53.400;7.608;2023-02-13T00:17:19;12.43;;;6.27;;
73266;SDS011;61495;53.400;7.608;2023-02-13T00:19:45;12.05;;;6.00;;
73266;SDS011;61495;53.400;7.608;2023-02-13T00:22:10;10.73;;;5.43;;
73266;SDS011;61495;53.400;7.608;2023-02-13T00:24:35;10.68;;;5.97;;
73266;SDS011;61495;53.400;7.608;2023-02-13T00:27:01;10.63;;;6.25;;
73266;SDS011;61495;53.400;7.608;2023-02-13T00:29:26;12.43;;;6.18;;
73266;SDS011;61495;53.400;7.608;2023-02-13T00:31:51;11.05;;;5.85;;
73266;SDS011;61495;53.400;7.608;2023-02-13T00:34:17;11.50;;;7.15;;
73266;SDS011;61495;53.400;7.608;2023-02-13T00:36:42;11.80;;;5.72;;
73266;SDS011;61495;53.400;7.608;2023-02-13T00:39:09;14.93;;;5.90;;
73266;SDS011;61495;53.400;7.608;2023-02-13T00:41:36;14.27;;;6.90;;
73266;SDS011;61495;53.400;7.608;2023-02-13T00:44:01;13.68;;;6.65;;
73266;SDS011;61495;53.400;7.608;2023-02-13T00:46:26;11.15;;;6.15;;
73266;SDS011;61495;53.400;7.608;2023-02-13T00:48:52;11.80;;;5.80;;
73266;SDS011;61495;53.400;7.608;2023-02-13T00:51:17;11.40;;;5.60;;
73266;SDS011;61495;53.400;7.608;2023-02-13T00:53:42;12.00;;;5.45;;
73266;SDS011;61495;53.400;7.608;2023-02-13T00:56:08;12.32;;;6.07;;
73266;SDS011;61495;53.400;7.608;2023-02-13T00:58:33;11.48;;;5.97;;
73266;SDS011;61495;53.400;7.608;2023-02-13T01:00:59;10.23;;;4.95;;
73266;SDS011;61495;53.400;7.608;2023-02-13T01:03:24;12.35;;;5.35;;
73266;SDS011;61495;53.400;7.608;2023-02-13T01:05:50;12.80;;;7.10;;
73266;SDS011;61495;53.400;7.608;2023-02-13T01:08:17;12.40;;;5.68;;
73266;SDS011;61495;53.400;7.608;2023-02-13T01:10:44;11.27;;;4.97;;
73266;SDS011;61495;53.400;7.608;2023-02-13T01:13:11;12.00;;;7.03;;
73266;SDS011;61495;53.400;7.608;2023-02-13T01:15:38;13.77;;;5.95;;
73266;SDS011;61495;53.400;7.608;2023-02-13T01:18:04;12.25;;;6.28;;
73266;SDS011;61495;53.400;7.608;2023-02-13T01:20:29;10.82;;;5.88;;
73266;SDS011;61495;53.400;7.608;2023-02-13T01:22:55;10.45;;;5.57;;
73266;SDS011;61495;53.400;7.608;2023-02-13T01:25:21;12.10;;;5.93;;
73266;SDS011;61495;53.400;7.608;2023-02-13T01:27:47;11.65;;;5.80;;
73266;SDS011;61495;53.400;7.608;2023-02-13T01:30:14;12.77;;;6.25;;
73266;SDS011;61495;53.400;7.608;2023-02-13T01:32:40;11.10;;;5.75;;
73266;SDS011;61495;53.400;7.608;2023-02-13T01:35:07;11.20;;;6.22;;
73266;SDS011;61495;53.400;7.608;2023-02-13T01:37:33;12.27;;;6.55;;
73266;SDS011;61495;53.400;7.608;2023-02-13T01:39:58;12.45;;;6.60;;
73266;SDS011;61495;53.400;7.608;2023-02-13T01:42:25;15.30;;;8.05;;
73266;SDS011;61495;53.400;7.608;2023-02-13T01:44:55;14.75;;;6.78;;
73266;SDS011;61495;53.400;7.608;2023-02-13T01:47:43;13.85;;;7.10;;
73266;SDS011;61495;53.400;7.608;2023-02-13T01:52:38;12.60;;;5.25;;
73266;SDS011;61495;53.400;7.608;2023-02-13T01:55:07;16.63;;;5.63;;
73266;SDS011;61495;53.400;7.608;2023-02-13T01:57:33;12.00;;;6.22;;
73266;SDS011;61495;53.400;7.608;2023-02-13T02:00:10;10.13;;;5.47;;
73266;SDS011;61495;53.400;7.608;2023-02-13T02:02:40;12.00;;;5.97;;
73266;SDS011;61495;53.400;7.608;2023-02-13T02:05:12;12.73;;;5.70;;
73266;SDS011;61495;53.400;7.608;2023-02-13T02:07:40;11.10;;;5.28;;
73266;SDS011;61495;53.400;7.608;2023-02-13T02:10:10;11.45;;;6.05;;
73266;SDS011;61495;53.400;7.608;2023-02-13T02:15:11;11.25;;;5.85;;
73266;SDS011;61495;53.400;7.608;2023-02-13T02:17:37;11.15;;;5.38;;
73266;SDS011;61495;53.400;7.608;2023-02-13T02:31:11;11.32;;;6.25;;
73266;SDS011;61495;53.400;7.608;2023-02-13T02:42:36;10.32;;;4.97;;
73266;SDS011;61495;53.400;7.608;2023-02-13T02:48:27;10.77;;;5.00;;
73266;SDS011;61495;53.400;7.608;2023-02-13T02:51:22;10.25;;;5.40;;
73266;SDS011;61495;53.400;7.608;2023-02-13T02:56:48;9.95;;;5.90;;
73266;SDS011;61495;53.400;7.608;2023-02-13T02:59:16;12.48;;;7.07;;
73266;SDS011;61495;53.400;7.608;2023-02-13T03:02:04;10.10;;;5.28;;
73266;SDS011;61495;53.400;7.608;2023-02-13T03:04:50;13.77;;;6.53;;
73266;SDS011;61495;53.400;7.608;2023-02-13T03:07:39;10.35;;;5.18;;
73266;SDS011;61495;53.400;7.608;2023-02-13T03:10:09;11.60;;;5.30;;
73266;SDS011;61495;53.400;7.608;2023-02-13T03:13:15;11.50;;;6.07;;
73266;SDS011;61495;53.400;7.608;2023-02-13T03:15:53;11.70;;;6.10;;
73266;SDS011;61495;53.400;7.608;2023-02-13T03:18:43;8.88;;;5.00;;
73266;SDS011;61495;53.400;7.608;2023-02-13T03:24:24;10.32;;;5.63;;
73266;SDS011;61495;53.400;7.608;2023-02-13T03:27:07;12.57;;;6.18;;
73266;SDS011;61495;53.400;7.608;2023-02-13T03:30:17;10.90;;;5.03;;
73266;SDS011;61495;53.400;7.608;2023-02-13T03:35:43;10.98;;;5.25;;
73266;SDS011;61495;53.400;7.608;2023-02-13T03:41:37;10.45;;;5.63;;
73266;SDS011;61495;53.400;7.608;2023-02-13T03:46:59;11.20;;;5.50;;
73266;SDS011;61495;53.400;7.608;2023-02-13T03:49:32;10.25;;;5.00;;
73266;SDS011;61495;53.400;7.608;2023-02-13T03:54:56;12.02;;;5.85;;
73266;SDS011;61495;53.400;7.608;2023-02-13T03:57:45;11.40;;;5.90;;
73266;SDS011;61495;53.400;7.608;2023-02-13T04:00:42;11.35;;;5.53;;
73266;SDS011;61495;53.400;7.608;2023-02-13T04:06:08;10.60;;;6.07;;
73266;SDS011;61495;53.400;7.608;2023-02-13T04:08:37;9.20;;;4.88;;
73266;SDS011;61495;53.400;7.608;2023-02-13T04:11:05;12.00;;;5.07;;
73266;SDS011;61495;53.400;7.608;2023-02-13T04:13:33;13.32;;;6.10;;
73266;SDS011;61495;53.400;7.608;2023-02-13T04:16:05;10.38;;;5.25;;
73266;SDS011;61495;53.400;7.608;2023-02-13T04:18:35;11.90;;;5.85;;
73266;SDS011;61495;53.400;7.608;2023-02-13T04:21:03;13.25;;;6.38;;
73266;SDS011;61495;53.400;7.608;2023-02-13T04:23:29;11.95;;;6.75;;
73266;SDS011;61495;53.400;7.608;2023-02-13T04:25:55;11.80;;;5.90;;
73266;SDS011;61495;53.400;7.608;2023-02-13T04:28:21;12.05;;;5.50;;
73266;SDS011;61495;53.400;7.608;2023-02-13T04:30:47;11.60;;;6.35;;
73266;SDS011;61495;53.400;7.608;2023-02-13T04:33:13;11.52;;;6.10;;
73266;SDS011;61495;53.400;7.608;2023-02-13T04:35:39;11.85;;;6.20;;
73266;SDS011;61495;53.400;7.608;2023-02-13T04:38:04;12.80;;;6.28;;
73266;SDS011;61495;53.400;7.608;2023-02-13T04:40:30;11.65;;;6.00;;
73266;SDS011;61495;53.400;7.608;2023-02-13T04:42:55;13.15;;;6.30;;
73266;SDS011;61495;53.400;7.608;2023-02-13T04:45:20;13.05;;;6.20;;
73266;SDS011;61495;53.400;7.608;2023-02-13T04:47:49;11.65;;;5.72;;
73266;SDS011;61495;53.400;7.608;2023-02-13T04:50:16;12.55;;;6.90;;
73266;SDS011;61495;53.400;7.608;2023-02-13T04:52:41;10.95;;;5.55;;
73266;SDS011;61495;53.400;7.608;2023-02-13T04:55:07;11.82;;;6.15;;
73266;SDS011;61495;53.400;7.608;2023-02-13T04:57:32;13.25;;;5.70;;
73266;SDS011;61495;53.400;7.608;2023-02-13T04:59:57;10.68;;;5.63;;
73266;SDS011;61495;53.400;7.608;2023-02-13T05:02:23;10.77;;;5.75;;
73266;SDS011;61495;53.400;7.608;2023-02-13T05:04:48;13.57;;;7.35;;
73266;SDS011;61495;53.400;7.608;2023-02-13T05:07:13;11.65;;;5.57;;
73266;SDS011;61495;53.400;7.608;2023-02-13T05:09:39;12.03;;;6.07;;
73266;SDS011;61495;53.400;7.608;2023-02-13T05:12:04;10.68;;;5.10;;
73266;SDS011;61495;53.400;7.608;2023-02-13T05:14:30;13.02;;;6.55;;
73266;SDS011;61495;53.400;7.608;2023-02-13T05:16:55;13.63;;;7.45;;
73266;SDS011;61495;53.400;7.608;2023-02-13T05:19:20;10.40;;;5.72;;
73266;SDS011;61495;53.400;7.608;2023-02-13T05:21:46;12.20;;;5.90;;
73266;SDS011;61495;53.400;7.608;2023-02-13T05:24:29;13.93;;;6.75;;
73266;SDS011;61495;53.400;7.608;2023-02-13T05:26:55;13.75;;;6.95;;
73266;SDS011;61495;53.400;7.608;2023-02-13T05:29:20;11.80;;;6.18;;
73266;SDS011;61495;53.400;7.608;2023-02-13T05:31:49;12.48;;;6.78;;
73266;SDS011;61495;53.400;7.608;2023-02-13T05:34:18;16.30;;;7.28;;
73266;SDS011;61495;53.400;7.608;2023-02-13T05:36:45;14.55;;;6.82;;
73266;SDS011;61495;53.400;7.608;2023-02-13T05:39:11;12.43;;;6.25;;
73266;SDS011;61495;53.400;7.608;2023-02-13T05:41:36;12.52;;;6.53;;
73266;SDS011;61495;53.400;7.608;2023-02-13T05:44:02;13.15;;;7.20;;
73266;SDS011;61495;53.400;7.608;2023-02-13T05:46:28;15.43;;;7.78;;
73266;SDS011;61495;53.400;7.608;2023-02-13T05:48:53;15.20;;;7.85;;
73266;SDS011;61495;53.400;7.608;2023-02-13T05:51:24;15.45;;;7.72;;
73266;SDS011;61495;53.400;7.608;2023-02-13T05:53:49;16.75;;;7.07;;
73266;SDS011;61495;53.400;7.608;2023-02-13T05:56:15;12.13;;;6.97;;
73266;SDS011;61495;53.400;7.608;2023-02-13T05:58:40;16.83;;;7.53;;
73266;SDS011;61495;53.400;7.608;2023-02-13T06:01:05;14.13;;;7.22;;
73266;SDS011;61495;53.400;7.608;2023-02-13T06:03:31;14.93;;;6.50;;
73266;SDS011;61495;53.400;7.608;2023-02-13T06:05:57;14.40;;;6.82;;
73266;SDS011;61495;53.400;7.608;2023-02-13T06:08:23;12.45;;;6.18;;
73266;SDS011;61495;53.400;7.608;2023-02-13T06:10:50;11.95;;;5.78;;
73266;SDS011;61495;53.400;7.608;2023-02-13T06:13:15;16.50;;;7.07;;
73266;SDS011;61495;53.400;7.608;2023-02-13T06:15:42;13.13;;;6.78;;
73266;SDS011;61495;53.400;7.608;2023-02-13T06:18:07;13.57;;;6.13;;
73266;SDS011;61495;53.400;7.608;2023-02-13T06:20:33;13.13;;;6.45;;
73266;SDS011;61495;53.400;7.608;2023-02-13T06:22:59;12.60;;;5.88;;
73266;SDS011;61495;53.400;7.608;2023-02-13T06:25:25;13.13;;;7.03;;
73266;SDS011;61495;53.400;7.608;2023-02-13T06:27:50;12.60;;;6.75;;
73266;SDS011;61495;53.400;7.608;2023-02-13T06:30:16;12.75;;;6.57;;
73266;SDS011;61495;53.400;7.608;2023-02-13T06:32:42;15.10;;;8.10;;
73266;SDS011;61495;53.400;7.608;2023-02-13T06:35:10;15.05;;;7.60;;
73266;SDS011;61495;53.400;7.608;2023-02-13T06:37:36;15.30;;;7.93;;
73266;SDS011;61495;53.400;7.608;2023-02-13T06:40:01;16.88;;;9.30;;
73266;SDS011;61495;53.400;7.608;2023-02-13T06:42:27;18.63;;;8.20;;
73266;SDS011;61495;53.400;7.608;2023-02-13T06:44:52;15.27;;;8.45;;
73266;SDS011;61495;53.400;7.608;2023-02-13T06:47:18;14.18;;;7.90;;
73266;SDS011;61495;53.400;7.608;2023-02-13T06:49:43;17.42;;;8.88;;
73266;SDS011;61495;53.400;7.608;2023-02-13T06:52:14;17.40;;;8.65;;
73266;SDS011;61495;53.400;7.608;2023-02-13T06:54:40;15.93;;;7.88;;
73266;SDS011;61495;53.400;7.608;2023-02-13T06:57:05;13.98;;;7.25;;
73266;SDS011;61495;53.400;7.608;2023-02-13T06:59:31;17.38;;;7.63;;
73266;SDS011;61495;53.400;7.608;2023-02-13T07:01:56;17.25;;;8.52;;
73266;SDS011;61495;53.400;7.608;2023-02-13T07:04:22;15.60;;;8.63;;
73266;SDS011;61495;53.400;7.608;2023-02-13T07:06:47;15.95;;;8.90;;
73266;SDS011;61495;53.400;7.608;2023-02-13T07:09:12;19.60;;;9.00;;
73266;SDS011;61495;53.400;7.608;2023-02-13T07:11:38;13.65;;;8.02;;
73266;SDS011;61495;53.400;7.608;2023-02-13T07:14:07;16.20;;;8.77;;
73266;SDS011;61495;53.400;7.608;2023-02-13T07:16:33;16.05;;;8.38;;
73266;SDS011;61495;53.400;7.608;2023-02-13T07:18:58;16.88;;;8.30;;
73266;SDS011;61495;53.400;7.608;2023-02-13T07:21:24;18.85;;;8.57;;
73266;SDS011;61495;53.400;7.608;2023-02-13T07:23:50;18.23;;;8.67;;
73266;SDS011;61495;53.400;7.608;2023-02-13T07:26:15;18.25;;;8.93;;
73266;SDS011;61495;53.400;7.608;2023-02-13T07:28:41;15.85;;;7.78;;
73266;SDS011;61495;53.400;7.608;2023-02-13T07:31:06;18.65;;;8.70;;
73266;SDS011;61495;53.400;7.608;2023-02-13T07:33:32;18.73;;;8.85;;
73266;SDS011;61495;53.400;7.608;2023-02-13T07:36:00;16.33;;;7.93;;
73266;SDS011;61495;53.400;7.608;2023-02-13T07:38:28;17.55;;;9.13;;
73266;SDS011;61495;53.400;7.608;2023-02-13T07:40:56;17.83;;;9.27;;
73266;SDS011;61495;53.400;7.608;2023-02-13T07:43:25;19.10;;;8.60;;
73266;SDS011;61495;53.400;7.608;2023-02-13T07:45:51;21.05;;;9.63;;
73266;SDS011;61495;53.400;7.608;2023-02-13T07:48:22;19.92;;;9.00;;
73266;SDS011;61495;53.400;7.608;2023-02-13T07:50:48;18.27;;;9.73;;
73266;SDS011;61495;53.400;7.608;2023-02-13T07:53:14;18.42;;;9.65;;
73266;SDS011;61495;53.400;7.608;2023-02-13T07:55:39;20.15;;;9.27;;
73266;SDS011;61495;53.400;7.608;2023-02-13T07:58:05;19.73;;;8.77;;
73266;SDS011;61495;53.400;7.608;2023-02-13T08:00:31;18.88;;;9.88;;
73266;SDS011;61495;53.400;7.608;2023-02-13T08:03:00;17.50;;;9.85;;
73266;SDS011;61495;53.400;7.608;2023-02-13T08:05:26;19.77;;;10.25;;
73266;SDS011;61495;53.400;7.608;2023-02-13T08:07:52;21.95;;;9.73;;
73266;SDS011;61495;53.400;7.608;2023-02-13T08:10:18;21.30;;;9.80;;
73266;SDS011;61495;53.400;7.608;2023-02-13T08:13:02;19.02;;;9.30;;
73266;SDS011;61495;53.400;7.608;2023-02-13T08:15:29;21.05;;;9.68;;
73266;SDS011;61495;53.400;7.608;2023-02-13T08:17:54;19.00;;;8.98;;
73266;SDS011;61495;53.400;7.608;2023-02-13T08:20:20;19.15;;;9.75;;
73266;SDS011;61495;53.400;7.608;2023-02-13T08:22:45;18.42;;;9.10;;
73266;SDS011;61495;53.400;7.608;2023-02-13T08:25:11;18.50;;;8.82;;
73266;SDS011;61495;53.400;7.608;2023-02-13T08:27:37;20.02;;;10.07;;
73266;SDS011;61495;53.400;7.608;2023-02-13T08:30:03;18.90;;;9.20;;
73266;SDS011;61495;53.400;7.608;2023-02-13T08:32:30;21.33;;;9.15;;
73266;SDS011;61495;53.400;7.608;2023-02-13T08:34:55;17.02;;;8.85;;
73266;SDS011;61495;53.400;7.608;2023-02-13T08:37:21;18.05;;;9.45;;
73266;SDS011;61495;53.400;7.608;2023-02-13T08:39:46;18.73;;;9.50;;
73266;SDS011;61495;53.400;7.608;2023-02-13T08:42:11;20.88;;;9.55;;
73266;SDS011;61495;53.400;7.608;2023-02-13T08:44:37;19.15;;;9.43;;
73266;SDS011;61495;53.400;7.608;2023-02-13T08:47:05;20.13;;;8.77;;
73266;SDS011;61495;53.400;7.608;2023-02-13T08:49:31;17.77;;;8.70;;
73266;SDS011;61495;53.400;7.608;2023-02-13T08:51:57;21.02;;;9.52;;
73266;SDS011;61495;53.400;7.608;2023-02-13T08:54:22;20.77;;;9.90;;
73266;SDS011;61495;53.400;7.608;2023-02-13T08:56:48;19.15;;;10.07;;
73266;SDS011;61495;53.400;7.608;2023-02-13T08:59:13;17.45;;;8.88;;
73266;SDS011;61495;53.400;7.608;2023-02-13T09:01:39;19.13;;;8.65;;
73266;SDS011;61495;53.400;7.608;2023-02-13T09:04:04;18.83;;;10.07;;
73266;SDS011;61495;53.400;7.608;2023-02-13T09:06:30;20.00;;;9.20;;
73266;SDS011;61495;53.400;7.608;2023-02-13T09:08:55;21.70;;;10.93;;
73266;SDS011;61495;53.400;7.608;2023-02-13T09:11:20;19.90;;;8.10;;
73266;SDS011;61495;53.400;7.608;2023-02-13T09:13:47;22.85;;;9.13;;
73266;SDS011;61495;53.400;7.608;2023-02-13T09:16:14;19.00;;;8.38;;
73266;SDS011;61495;53.400;7.608;2023-02-13T09:18:40;24.33;;;10.10;;
73266;SDS011;61495;53.400;7.608;2023-02-13T09:21:06;19.70;;;10.02;;
73266;SDS011;61495;53.400;7.608;2023-02-13T09:23:38;21.05;;;9.52;;
73266;SDS011;61495;53.400;7.608;2023-02-13T09:26:05;19.65;;;9.60;;
73266;SDS011;61495;53.400;7.608;2023-02-13T09:28:32;25.75;;;10.65;;
73266;SDS011;61495;53.400;7.608;2023-02-13T09:30:58;19.90;;;9.95;;
73266;SDS011;61495;53.400;7.608;2023-02-13T09:33:24;20.92;;;10.00;;
73266;SDS011;61495;53.400;7.608;2023-02-13T09:35:50;20.60;;;9.90;;
73266;SDS011;61495;53.400;7.608;2023-02-13T09:38:16;21.60;;;10.55;;
73266;SDS011;61495;53.400;7.608;2023-02-13T09:40:45;20.25;;;9.48;;
73266;SDS011;61495;53.400;7.608;2023-02-13T09:45:59;18.27;;;9.95;;
73266;SDS011;61495;53.400;7.608;2023-02-13T09:48:33;21.13;;;10.10;;
73266;SDS011;61495;53.400;7.608;2023-02-13T09:51:01;18.65;;;9.80;;
73266;SDS011;61495;53.400;7.608;2023-02-13T09:53:28;21.42;;;9.93;;
73266;SDS011;61495;53.400;7.608;2023-02-13T09:58:45;23.27;;;10.50;;
73266;SDS011;61495;53.400;7.608;2023-02-13T10:01:25;20.15;;;8.98;;
73266;SDS011;61495;53.400;7.608;2023-02-13T10:04:10;20.77;;;10.05;;
73266;SDS011;61495;53.400;7.608;2023-02-13T10:06:41;23.60;;;9.82;;
73266;SDS011;61495;53.400;7.608;2023-02-13T10:17:31;23.50;;;10.77;;
73266;SDS011;61495;53.400;7.608;2023-02-13T10:20:43;22.67;;;10.82;;
73266;SDS011;61495;53.400;7.608;2023-02-13T10:22:58;20.33;;;9.65;;
73266;SDS011;61495;53.400;7.608;2023-02-13T10:25:43;20.95;;;10.50;;
73266;SDS011;61495;53.400;7.608;2023-02-13T10:28:15;23.95;;;10.18;;
73266;SDS011;61495;53.400;7.608;2023-02-13T10:30:51;22.63;;;10.90;;
73266;SDS011;61495;53.400;7.608;2023-02-13T10:36:01;21.55;;;10.57;;
73266;SDS011;61495;53.400;7.608;2023-02-13T10:38:34;19.55;;;8.27;;
73266;SDS011;61495;53.400;7.608;2023-02-13T10:46:36;18.52;;;9.40;;
73266;SDS011;61495;53.400;7.608;2023-02-13T10:52:02;22.42;;;9.65;;
73266;SDS011;61495;53.400;7.608;2023-02-13T10:55:09;17.95;;;8.52;;
73266;SDS011;61495;53.400;7.608;2023-02-13T11:03:23;19.95;;;8.60;;
73266;SDS011;61495;53.400;7.608;2023-02-13T11:05:50;22.92;;;9.50;;
73266;SDS011;61495;53.400;7.608;2023-02-13T11:08:21;17.70;;;9.23;;
73266;SDS011;61495;53.400;7.608;2023-02-13T11:10:52;16.70;;;8.50;;
73266;SDS011;61495;53.400;7.608;2023-02-13T11:13:22;18.52;;;9.52;;
73266;SDS011;61495;53.400;7.608;2023-02-13T11:18:29;19.27;;;9.68;;
73266;SDS011;61495;53.400;7.608;2023-02-13T11:20:58;19.05;;;8.73;;
73266;SDS011;61495;53.400;7.608;2023-02-13T11:23:33;23.52;;;10.07;;
73266;SDS011;61495;53.400;7.608;2023-02-13T11:26:06;21.17;;;9.85;;
73266;SDS011;61495;53.400;7.608;2023-02-13T11:28:44;18.23;;;8.70;;
73266;SDS011;61495;53.400;7.608;2023-02-13T11:31:20;20.10;;;8.32;;
73266;SDS011;61495;53.400;7.608;2023-02-13T11:33:46;19.75;;;9.27;;
73266;SDS011;61495;53.400;7.608;2023-02-13T11:36:16;17.17;;;9.43;;
73266;SDS011;61495;53.400;7.608;2023-02-13T11:39:02;18.65;;;8.88;;
73266;SDS011;61495;53.400;7.608;2023-02-13T11:41:30;18.90;;;9.02;;
73266;SDS011;61495;53.400;7.608;2023-02-13T11:44:03;17.00;;;7.78;;
73266;SDS011;61495;53.400;7.608;2023-02-13T11:46:30;18.05;;;8.40;;
73266;SDS011;61495;53.400;7.608;2023-02-13T11:49:38;17.70;;;8.63;;
73266;SDS011;61495;53.400;7.608;2023-02-13T11:52:04;17.52;;;8.20;;
73266;SDS011;61495;53.400;7.608;2023-02-13T11:54:35;17.77;;;9.15;;
73266;SDS011;61495;53.400;7.608;2023-02-13T11:57:23;21.83;;;8.68;;
73266;SDS011;61495;53.400;7.608;2023-02-13T11:59:59;17.75;;;8.35;;
73266;SDS011;61495;53.400;7.608;2023-02-13T12:02:48;19.30;;;9.50;;
73266;SDS011;61495;53.400;7.608;2023-02-13T12:05:18;17.23;;;7.65;;
73266;SDS011;61495;53.400;7.608;2023-02-13T12:07:47;15.95;;;7.32;;
73266;SDS011;61495;53.400;7.608;2023-02-13T12:10:26;16.58;;;8.05;;
73266;SDS011;61495;53.400;7.608;2023-02-13T12:15:26;18.45;;;8.95;;
73266;SDS011;61495;53.400;7.608;2023-02-13T12:20:40;15.07;;;7.47;;
73266;SDS011;61495;53.400;7.608;2023-02-13T12:26:34;14.07;;;7.60;;
73266;SDS011;61495;53.400;7.608;2023-02-13T12:31:54;15.90;;;8.30;;
73266;SDS011;61495;53.400;7.608;2023-02-13T12:37:22;19.73;;;9.68;;
73266;SDS011;61495;53.400;7.608;2023-02-13T12:40:29;18.85;;;8.73;;
73266;SDS011;61495;53.400;7.608;2023-02-13T12:48:36;19.90;;;9.43;;
73266;SDS011;61495;53.400;7.608;2023-02-13T12:51:24;19.85;;;9.45;;
73266;SDS011;61495;53.400;7.608;2023-02-13T13:07:35;20.80;;;10.38;;
73266;SDS011;61495;53.400;7.608;2023-02-13T13:15:52;19.45;;;9.15;;
73266;SDS011;61495;53.400;7.608;2023-02-13T13:27:14;19.23;;;9.60;;
73266;SDS011;61495;53.400;7.608;2023-02-13T13:29:50;21.42;;;10.18;;
73266;SDS011;61495;53.400;7.608;2023-02-13T13:32:22;19.67;;;9.77;;
73266;SDS011;61495;53.400;7.608;2023-02-13T13:34:50;21.80;;;11.73;;
73266;SDS011;61495;53.400;7.608;2023-02-13T13:37:28;22.92;;;9.73;;
73266;SDS011;61495;53.400;7.608;2023-02-13T13:40:22;22.77;;;9.80;;
73266;SDS011;61495;53.400;7.608;2023-02-13T13:50:38;19.58;;;8.30;;
73266;SDS011;61495;53.400;7.608;2023-02-13T13:53:13;19.85;;;9.95;;
73266;SDS011;61495;53.400;7.608;2023-02-13T13:58:20;17.33;;;9.13;;
73266;SDS011;61495;53.400;7.608;2023-02-13T14:03:54;19.45;;;8.73;;
73266;SDS011;61495;53.400;7.608;2023-02-13T14:06:24;21.58;;;10.15;;
73266;SDS011;61495;53.400;7.608;2023-02-13T14:08:56;20.42;;;9.70;;
73266;SDS011;61495;53.400;7.608;2023-02-13T14:14:48;20.50;;;9.85;;
73266;SDS011;61495;53.400;7.608;2023-02-13T14:16:51;19.33;;;10.07;;
73266;SDS011;61495;53.400;7.608;2023-02-13T14:19:25;19.88;;;10.98;;
73266;SDS011;61495;53.400;7.608;2023-02-13T14:22:24;17.08;;;9.43;;
73266;SDS011;61495;53.400;7.608;2023-02-13T14:24:56;20.92;;;9.68;;
73266;SDS011;61495;53.400;7.608;2023-02-13T14:27:39;19.60;;;10.00;;
73266;SDS011;61495;53.400;7.608;2023-02-13T14:30:05;22.23;;;10.63;;
73266;SDS011;61495;53.400;7.608;2023-02-13T14:32:53;21.13;;;10.13;;
73266;SDS011;61495;53.400;7.608;2023-02-13T14:35:24;21.67;;;9.90;;
73266;SDS011;61495;53.400;7.608;2023-02-13T14:45:20;23.03;;;12.33;;
73266;SDS011;61495;53.400;7.608;2023-02-13T14:47:51;24.58;;;10.07;;
73266;SDS011;61495;53.400;7.608;2023-02-13T14:53:17;22.33;;;9.98;;
73266;SDS011;61495;53.400;7.608;2023-02-13T14:55:45;23.13;;;10.32;;
73266;SDS011;61495;53.400;7.608;2023-02-13T14:58:28;21.15;;;10.30;;
73266;SDS011;61495;53.400;7.608;2023-02-13T15:01:07;19.92;;;10.18;;
73266;SDS011;61495;53.400;7.608;2023-02-13T15:03:48;16.98;;;8.85;;
73266;SDS011;61495;53.400;7.608;2023-02-13T15:08:50;23.10;;;10.13;;
73266;SDS011;61495;53.400;7.608;2023-02-13T15:11:34;20.38;;;8.35;;
73266;SDS011;61495;53.400;7.608;2023-02-13T15:17:15;18.33;;;10.15;;
73266;SDS011;61495;53.400;7.608;2023-02-13T15:19:44;18.42;;;9.43;;
73266;SDS011;61495;53.400;7.608;2023-02-13T15:22:19;22.88;;;10.18;;
73266;SDS011;61495;53.400;7.608;2023-02-13T15:24:56;21.30;;;9.35;;
73266;SDS011;61495;53.400;7.608;2023-02-13T15:27:24;21.50;;;11.13;;
73266;SDS011;61495;53.400;7.608;2023-02-13T15:29:52;24.05;;;10.93;;
73266;SDS011;61495;53.400;7.608;2023-02-13T15:32:23;23.08;;;10.15;;
73266;SDS011;61495;53.400;7.608;2023-02-13T15:34:51;20.75;;;10.18;;
73266;SDS011;61495;53.400;7.608;2023-02-13T15:37:26;25.80;;;12.38;;
73266;SDS011;61495;53.400;7.608;2023-02-13T15:39:53;24.48;;;10.35;;
73266;SDS011;61495;53.400;7.608;2023-02-13T15:42:19;23.55;;;10.57;;
73266;SDS011;61495;53.400;7.608;2023-02-13T15:44:46;23.52;;;11.02;;
73266;SDS011;61495;53.400;7.608;2023-02-13T15:47:27;21.08;;;10.40;;
73266;SDS011;61495;53.400;7.608;2023-02-13T15:49:55;23.90;;;11.23;;
73266;SDS011;61495;53.400;7.608;2023-02-13T15:52:25;22.63;;;9.60;;
73266;SDS011;61495;53.400;7.608;2023-02-13T15:54:58;22.35;;;10.85;;
73266;SDS011;61495;53.400;7.608;2023-02-13T15:57:24;27.75;;;13.38;;
73266;SDS011;61495;53.400;7.608;2023-02-13T15:59:51;22.42;;;10.93;;
73266;SDS011;61495;53.400;7.608;2023-02-13T16:02:20;24.77;;;10.20;;
73266;SDS011;61495;53.400;7.608;2023-02-13T16:04:50;21.92;;;10.15;;
73266;SDS011;61495;53.400;7.608;2023-02-13T16:07:18;23.50;;;11.68;;
73266;SDS011;61495;53.400;7.608;2023-02-13T16:09:44;23.17;;;10.80;;
73266;SDS011;61495;53.400;7.608;2023-02-13T16:14:54;24.15;;;11.80;;
73266;SDS011;61495;53.400;7.608;2023-02-13T16:17:31;23.50;;;11.75;;
73266;SDS011;61495;53.400;7.608;2023-02-13T16:20:03;24.45;;;11.13;;
73266;SDS011;61495;53.400;7.608;2023-02-13T16:22:36;24.15;;;11.70;;
73266;SDS011;61495;53.400;7.608;2023-02-13T16:27:43;25.85;;;11.90;;
73266;SDS011;61495;53.400;7.608;2023-02-13T16:35:33;25.92;;;12.48;;
73266;SDS011;61495;53.400;7.608;2023-02-13T16:38:04;19.90;;;11.02;;
73266;SDS011;61495;53.400;7.608;2023-02-13T16:40:51;23.13;;;11.70;;
73266;SDS011;61495;53.400;7.608;2023-02-13T16:43:32;21.88;;;11.98;;
73266;SDS011;61495;53.400;7.608;2023-02-13T16:48:58;25.85;;;12.00;;
73266;SDS011;61495;53.400;7.608;2023-02-13T16:56:36;25.02;;;10.27;;
73266;SDS011;61495;53.400;7.608;2023-02-13T17:01:42;21.85;;;11.27;;
73266;SDS011;61495;53.400;7.608;2023-02-13T17:04:18;25.02;;;11.30;;
73266;SDS011;61495;53.400;7.608;2023-02-13T17:06:46;23.92;;;10.60;;
73266;SDS011;61495;53.400;7.608;2023-02-13T17:09:12;22.45;;;10.88;;
73266;SDS011;61495;53.400;7.608;2023-02-13T17:11:37;23.90;;;11.50;;
73266;SDS011;61495;53.400;7.608;2023-02-13T17:14:03;27.27;;;13.23;;
73266;SDS011;61495;53.400;7.608;2023-02-13T17:16:28;26.10;;;11.68;;
73266;SDS011;61495;53.400;7.608;2023-02-13T17:18:54;28.52;;;13.50;;
73266;SDS011;61495;53.400;7.608;2023-02-13T17:21:19;26.00;;;12.10;;
73266;SDS011;61495;53.400;7.608;2023-02-13T17:23:45;24.63;;;12.18;;
73266;SDS011;61495;53.400;7.608;2023-02-13T17:26:11;26.80;;;12.75;;
73266;SDS011;61495;53.400;7.608;2023-02-13T17:28:37;25.90;;;12.52;;
73266;SDS011;61495;53.400;7.608;2023-02-13T17:31:03;27.52;;;12.18;;
73266;SDS011;61495;53.400;7.608;2023-02-13T17:33:35;28.38;;;13.02;;
73266;SDS011;61495;53.400;7.608;2023-02-13T17:36:04;28.70;;;13.43;;
73266;SDS011;61495;53.400;7.608;2023-02-13T17:38:30;28.40;;;13.40;;
73266;SDS011;61495;53.400;7.608;2023-02-13T17:40:55;22.55;;;12.27;;
73266;SDS011;61495;53.400;7.608;2023-02-13T17:43:20;28.08;;;13.35;;
73266;SDS011;61495;53.400;7.608;2023-02-13T17:45:47;23.02;;;11.93;;
73266;SDS011;61495;53.400;7.608;2023-02-13T17:48:13;31.17;;;13.02;;
73266;SDS011;61495;53.400;7.608;2023-02-13T17:50:39;29.17;;;13.48;;